Patrick Springs, Virginia
Current Conditions -  °F | °C
As of 2:15 PM on Thursday 30 Oct 2014 (Local Time) from KMTV Reporting Station
Clear Clear  
Wind Chill: 64°   Ceiling: Unl
Heat Index: 64°   Visibility: 10mi
Dew Point: 34°   Wind: 3mph
Humidity: 33%   Direction: 330°NNW
Pressure: 30.04"   Gusts: NA
Location:  36.64°N, 80.19°W
Report Text: KMTV 301815Z AUTO 33003KT 10SM CLR 18/01 A3004 RMK AO2 T01750011
Loading
Personal Weather Stations






























Interactive Weather Map
Tropical Storm Tracking
New forecast layout! Learn more

10-Day Weather Forecast

Advertisements
Track Severe Weather on mobile